Time;durP1;ratioP1;P1;durP2;ratioP2;P2;SDS_P1;SDS_P2;PMS_P1;PMS_P2;Temp;Humidity;BMP_temperature;BMP_pressure;BME280_temperature;BME280_humidity;BME280_pressure;Samples;Min_cycle;Max_cycle;Signal;HPM_P1;HPM_P2
2023/10/31 00:01:03;;;;;;;;;;;10.90;92.00;;;;;;5130259;27;19931;-66
2023/10/31 00:03:28;;;;;;;;;;;10.70;92.10;;;;;;5132620;27;19923;-66
2023/10/31 00:05:54;;;;;;;;;;;10.70;92.20;;;;;;5132931;27;19924;-66
2023/10/31 00:08:19;;;;;;;;;;;10.70;92.40;;;;;;5132699;27;19928;-65
2023/10/31 00:10:46;;;;;;;;;;;10.60;92.50;;;;;;5132888;27;19924;-66
2023/10/31 00:13:11;;;;;;;;;;;10.60;92.50;;;;;;5130975;27;20391;-66
2023/10/31 00:15:37;;;;;;;;;;;10.50;92.60;;;;;;5132619;27;19938;-66
2023/10/31 00:18:02;;;;;;;;;;;10.50;92.60;;;;;;5131558;27;19930;-65
2023/10/31 00:20:29;;;;;;;;;;;10.60;92.60;;;;;;5132297;27;19923;-65
2023/10/31 00:22:54;;;;;;;;;;;10.50;92.60;;;;;;5132777;27;19924;-64
2023/10/31 00:25:20;;;;;;;;;;;10.60;92.60;;;;;;5132475;27;20411;-65
2023/10/31 00:27:45;;;;;;;;;;;10.50;92.70;;;;;;5131510;27;19935;-65
2023/10/31 00:30:11;;;;;;;;;;;10.40;92.60;;;;;;5131935;27;19923;-65
2023/10/31 00:32:36;;;;;;;;;;;10.40;92.90;;;;;;5131983;27;20383;-66
2023/10/31 00:35:02;;;;;;;;;;;10.40;93.00;;;;;;5131960;27;19930;-65
2023/10/31 00:37:27;;;;;;;;;;;10.40;92.90;;;;;;5132474;27;19923;-66
2023/10/31 00:39:53;;;;;;;;;;;10.40;93.10;;;;;;5130914;27;19977;-65
2023/10/31 00:42:18;;;;;;;;;;;10.40;93.10;;;;;;5131900;27;19931;-65
2023/10/31 00:44:44;;;;;;;;;;;10.50;93.10;;;;;;5128760;27;20439;-65
2023/10/31 00:47:09;;;;;;;;;;;10.40;93.10;;;;;;5131185;27;19923;-65
2023/10/31 00:49:35;;;;;;;;;;;10.40;93.10;;;;;;5130705;27;20368;-66
2023/10/31 00:52:00;;;;;;;;;;;10.50;93.30;;;;;;5131514;27;19923;-65
2023/10/31 00:54:26;;;;;;;;;;;10.50;93.30;;;;;;5132005;27;19924;-65
2023/10/31 00:56:51;;;;;;;;;;;10.50;93.40;;;;;;5131592;27;19924;-65
2023/10/31 00:59:17;;;;;;;;;;;10.50;93.50;;;;;;5113210;27;19924;-65
2023/10/31 01:01:42;;;;;;;;;;;10.50;93.60;;;;;;5131778;27;19927;-65
2023/10/31 01:04:08;;;;;;;;;;;10.50;93.50;;;;;;5131468;27;20138;-65
2023/10/31 01:06:33;;;;;;;;;;;10.50;93.60;;;;;;5131500;27;19923;-65
2023/10/31 01:08:59;;;;;;;;;;;10.50;93.60;;;;;;5131850;27;19930;-66
2023/10/31 01:11:24;;;;;;;;;;;10.50;93.80;;;;;;5130717;27;19953;-65
2023/10/31 01:13:50;;;;;;;;;;;10.50;93.80;;;;;;5130447;27;19927;-65
2023/10/31 01:16:17;;;;;;;;;;;10.50;93.70;;;;;;5131555;27;19927;-65
2023/10/31 01:18:42;;;;;;;;;;;10.40;93.60;;;;;;5127813;27;19971;-65
2023/10/31 01:21:09;;;;;;;;;;;10.40;93.80;;;;;;5129448;27;19970;-65
2023/10/31 01:23:34;;;;;;;;;;;10.40;93.80;;;;;;5130068;27;19923;-65
2023/10/31 01:25:59;;;;;;;;;;;10.40;93.80;;;;;;5131455;27;19927;-65
2023/10/31 01:28:25;;;;;;;;;;;10.40;93.80;;;;;;5130965;27;19924;-65
2023/10/31 01:30:50;;;;;;;;;;;10.30;93.90;;;;;;5129001;27;19937;-65
2023/10/31 01:33:16;;;;;;;;;;;10.40;94.00;;;;;;5130631;27;19923;-65
2023/10/31 01:35:41;;;;;;;;;;;10.30;94.10;;;;;;5132107;27;20292;-65
2023/10/31 01:38:07;;;;;;;;;;;10.30;94.10;;;;;;5132151;27;19928;-65
2023/10/31 01:40:32;;;;;;;;;;;10.30;94.20;;;;;;5130630;27;20387;-66
2023/10/31 01:42:58;;;;;;;;;;;10.30;94.20;;;;;;5131869;27;19927;-65
2023/10/31 01:45:23;;;;;;;;;;;10.30;94.20;;;;;;5131916;27;19924;-65
2023/10/31 01:47:52;;;;;;;;;;;10.40;94.20;;;;;;5131138;27;20022;-65
2023/10/31 01:50:18;;;;;;;;;;;10.30;94.20;;;;;;5131435;27;19931;-65
2023/10/31 01:52:43;;;;;;;;;;;10.30;94.20;;;;;;5113066;27;19924;-65
2023/10/31 01:55:10;;;;;;;;;;;10.30;94.10;;;;;;5128830;27;19974;-65
2023/10/31 01:57:35;;;;;;;;;;;10.40;94.10;;;;;;5131530;27;19923;-65
2023/10/31 02:00:01;;;;;;;;;;;10.40;94.10;;;;;;5131441;27;19930;-66
2023/10/31 02:02:27;;;;;;;;;;;10.40;94.20;;;;;;5131383;27;19966;-65
2023/10/31 02:04:52;;;;;;;;;;;10.40;94.20;;;;;;5131767;27;19923;-65
2023/10/31 02:07:18;;;;;;;;;;;10.50;94.20;;;;;;5131520;27;20392;-65
2023/10/31 02:09:43;;;;;;;;;;;10.50;94.30;;;;;;5131774;27;19928;-64
2023/10/31 02:12:09;;;;;;;;;;;10.40;94.20;;;;;;5130557;27;19923;-65
2023/10/31 02:14:34;;;;;;;;;;;10.40;94.30;;;;;;5131530;27;19946;-65
2023/10/31 02:17:00;;;;;;;;;;;10.40;94.30;;;;;;5131135;27;19923;-64
2023/10/31 02:19:25;;;;;;;;;;;10.50;94.20;;;;;;5131462;27;19924;-65
2023/10/31 02:21:51;;;;;;;;;;;10.50;94.30;;;;;;5130981;27;19938;-65
2023/10/31 02:24:16;;;;;;;;;;;10.50;94.30;;;;;;5130724;27;19930;-65
2023/10/31 02:26:41;;;;;;;;;;;10.40;94.30;;;;;;5131056;27;20272;-65
2023/10/31 02:29:07;;;;;;;;;;;10.50;94.40;;;;;;5131519;27;19934;-66
2023/10/31 02:31:32;;;;;;;;;;;10.40;94.30;;;;;;5129517;27;19938;-66
2023/10/31 02:33:58;;;;;;;;;;;10.50;94.40;;;;;;5112288;27;19927;-65
2023/10/31 02:36:24;;;;;;;;;;;10.50;94.40;;;;;;5115124;27;19962;-65
2023/10/31 02:38:49;;;;;;;;;;;10.50;94.30;;;;;;5130709;27;20556;-65
2023/10/31 02:41:15;;;;;;;;;;;10.50;94.30;;;;;;5129357;27;19973;-65
2023/10/31 02:43:41;;;;;;;;;;;10.50;94.40;;;;;;5130593;27;19927;-65
2023/10/31 02:46:07;;;;;;;;;;;10.50;94.40;;;;;;5130992;27;20744;-66
2023/10/31 02:48:38;;;;;;;;;;;10.50;94.50;;;;;;5130717;27;19946;-66
2023/10/31 02:51:09;;;;;;;;;;;10.50;94.60;;;;;;5129336;27;19927;-65
2023/10/31 02:53:36;;;;;;;;;;;10.60;94.70;;;;;;5135641;27;19923;-65
2023/10/31 02:56:03;;;;;;;;;;;10.60;94.80;;;;;;5130265;27;21331;-65
2023/10/31 02:58:29;;;;;;;;;;;10.60;94.80;;;;;;5130783;27;20379;-65
2023/10/31 03:00:55;;;;;;;;;;;10.50;94.80;;;;;;5130173;27;20463;-66
2023/10/31 03:03:20;;;;;;;;;;;10.60;94.80;;;;;;5130071;27;19923;-65
2023/10/31 03:05:46;;;;;;;;;;;10.60;94.80;;;;;;5130525;27;19923;-66
2023/10/31 03:08:12;;;;;;;;;;;10.60;94.80;;;;;;5130811;27;19981;-66
2023/10/31 03:10:38;;;;;;;;;;;10.60;94.80;;;;;;5130891;27;19981;-66
2023/10/31 03:13:03;;;;;;;;;;;10.50;94.90;;;;;;5130061;27;19928;-65
2023/10/31 03:15:29;;;;;;;;;;;10.60;94.90;;;;;;5129121;28;19955;-67
2023/10/31 03:17:54;;;;;;;;;;;10.60;94.90;;;;;;5130436;28;20020;-65
2023/10/31 03:20:20;;;;;;;;;;;10.60;94.90;;;;;;5129972;28;19970;-66
2023/10/31 03:22:45;;;;;;;;;;;10.60;94.80;;;;;;5130181;28;19984;-67
2023/10/31 03:25:11;;;;;;;;;;;10.70;94.80;;;;;;5130024;28;20455;-65
2023/10/31 03:27:36;;;;;;;;;;;10.60;94.80;;;;;;5130201;28;19924;-65
2023/10/31 03:30:02;;;;;;;;;;;10.60;94.60;;;;;;5130495;28;20026;-65
2023/10/31 03:32:27;;;;;;;;;;;10.60;94.70;;;;;;5129762;28;19923;-65
2023/10/31 03:34:53;;;;;;;;;;;10.60;94.80;;;;;;5120447;28;19977;-66
2023/10/31 03:37:18;;;;;;;;;;;10.60;94.60;;;;;;5133255;27;19968;-66
2023/10/31 03:39:44;;;;;;;;;;;10.50;94.50;;;;;;5134640;27;19923;-66
2023/10/31 03:42:09;;;;;;;;;;;10.50;94.70;;;;;;5134127;27;19924;-66
2023/10/31 03:44:35;;;;;;;;;;;10.50;94.70;;;;;;5132774;27;20017;-66
2023/10/31 03:47:00;;;;;;;;;;;10.50;94.80;;;;;;5133157;27;19988;-65
2023/10/31 03:49:26;;;;;;;;;;;10.50;94.80;;;;;;5133512;27;19927;-66
2023/10/31 03:51:51;;;;;;;;;;;10.50;94.70;;;;;;5134248;27;19934;-65
2023/10/31 03:54:17;;;;;;;;;;;10.50;94.70;;;;;;5133431;27;19945;-65
2023/10/31 03:56:43;;;;;;;;;;;10.50;94.60;;;;;;5133893;27;19931;-66
2023/10/31 03:59:09;;;;;;;;;;;10.50;94.60;;;;;;5133659;27;19924;-66
2023/10/31 04:01:34;;;;;;;;;;;10.50;94.60;;;;;;5134114;27;19932;-66
2023/10/31 04:04:00;;;;;;;;;;;10.50;94.40;;;;;;5134108;27;19924;-65
2023/10/31 04:06:25;;;;;;;;;;;10.50;94.40;;;;;;5133396;27;20006;-65
2023/10/31 04:08:51;;;;;;;;;;;10.40;94.50;;;;;;5133668;27;19928;-66
2023/10/31 04:11:16;;;;;;;;;;;10.40;94.30;;;;;;5133463;27;19943;-66
2023/10/31 04:13:42;;;;;;;;;;;10.40;94.30;;;;;;5133873;27;19923;-66
2023/10/31 04:16:07;;;;;;;;;;;10.40;94.30;;;;;;5133848;27;20284;-65
2023/10/31 04:18:33;;;;;;;;;;;10.40;94.20;;;;;;5133572;27;20006;-65
2023/10/31 04:20:58;;;;;;;;;;;10.40;94.30;;;;;;5129659;27;20060;-66
2023/10/31 04:23:24;;;;;;;;;;;10.40;94.20;;;;;;5132128;27;19930;-66
2023/10/31 04:25:51;;;;;;;;;;;10.40;94.20;;;;;;5133755;27;20372;-65
2023/10/31 04:28:16;;;;;;;;;;;10.40;94.20;;;;;;5133601;27;20291;-66
2023/10/31 04:30:42;;;;;;;;;;;10.30;94.20;;;;;;5133636;27;19927;-65
2023/10/31 04:33:07;;;;;;;;;;;10.40;94.30;;;;;;5132080;27;20761;-65
2023/10/31 04:35:33;;;;;;;;;;;10.40;94.30;;;;;;5133578;27;19930;-66
2023/10/31 04:37:58;;;;;;;;;;;10.40;94.30;;;;;;5133193;27;20419;-65
2023/10/31 04:40:24;;;;;;;;;;;10.40;94.30;;;;;;5133203;27;19924;-66
2023/10/31 04:42:49;;;;;;;;;;;10.40;94.30;;;;;;5118549;27;19924;-65
2023/10/31 04:45:15;;;;;;;;;;;10.50;94.30;;;;;;5131556;27;19976;-66
2023/10/31 04:47:41;;;;;;;;;;;10.50;94.30;;;;;;5131302;27;20306;-66
2023/10/31 04:50:07;;;;;;;;;;;10.40;94.50;;;;;;5132995;27;19928;-66
2023/10/31 04:52:32;;;;;;;;;;;10.50;94.50;;;;;;5122520;27;20001;-66
2023/10/31 04:54:57;;;;;;;;;;;10.40;94.50;;;;;;5120852;27;19923;-66
2023/10/31 04:57:23;;;;;;;;;;;10.50;94.50;;;;;;5112420;28;19984;-66
2023/10/31 04:59:48;;;;;;;;;;;10.50;94.70;;;;;;5125218;27;19946;-66
2023/10/31 05:02:14;;;;;;;;;;;10.60;94.70;;;;;;5118142;27;19976;-66
2023/10/31 05:04:40;;;;;;;;;;;10.60;94.60;;;;;;5132590;27;19988;-66
2023/10/31 05:07:05;;;;;;;;;;;10.60;94.60;;;;;;5132896;27;19980;-66
2023/10/31 05:09:31;;;;;;;;;;;10.60;94.60;;;;;;5132261;27;19931;-66
2023/10/31 05:11:56;;;;;;;;;;;10.60;94.50;;;;;;5132590;27;19923;-66
2023/10/31 05:14:22;;;;;;;;;;;10.60;94.60;;;;;;5132196;27;19946;-65
2023/10/31 05:16:47;;;;;;;;;;;10.60;94.60;;;;;;5132148;27;19930;-66
2023/10/31 05:19:13;;;;;;;;;;;10.60;94.60;;;;;;5132082;27;19923;-66
2023/10/31 05:21:38;;;;;;;;;;;10.60;94.60;;;;;;5132552;27;19930;-66
2023/10/31 05:24:04;;;;;;;;;;;10.60;94.50;;;;;;5132032;27;20014;-65
2023/10/31 05:26:29;;;;;;;;;;;10.60;94.50;;;;;;5132553;27;20272;-66
2023/10/31 05:28:56;;;;;;;;;;;10.60;94.60;;;;;;5132361;27;19927;-65
2023/10/31 05:31:22;;;;;;;;;;;10.60;94.70;;;;;;5131863;27;19927;-66
2023/10/31 05:33:47;;;;;;;;;;;10.60;94.60;;;;;;5130927;27;20418;-65
2023/10/31 05:36:20;;;;;;;;;;;10.60;94.70;;;;;;5131075;27;20418;-66
2023/10/31 05:38:45;;;;;;;;;;;10.60;94.70;;;;;;5132476;27;19927;-65
2023/10/31 05:41:11;;;;;;;;;;;10.60;94.70;;;;;;5131421;27;19923;-65
2023/10/31 05:43:36;;;;;;;;;;;10.60;94.70;;;;;;5126696;27;19959;-66
2023/10/31 05:46:02;;;;;;;;;;;10.60;94.80;;;;;;5132144;27;20383;-67
2023/10/31 05:48:27;;;;;;;;;;;10.60;94.80;;;;;;5120249;27;20022;-66
2023/10/31 05:50:52;;;;;;;;;;;10.60;94.80;;;;;;5126944;27;19927;-66
2023/10/31 05:53:18;;;;;;;;;;;10.60;94.80;;;;;;5131229;27;19924;-67
2023/10/31 05:55:43;;;;;;;;;;;10.60;94.90;;;;;;5130082;27;20280;-67
2023/10/31 05:58:09;;;;;;;;;;;10.60;94.90;;;;;;5131649;27;19975;-66
2023/10/31 06:00:35;;;;;;;;;;;10.60;94.90;;;;;;5130058;27;19931;-67
2023/10/31 06:03:00;;;;;;;;;;;10.60;95.00;;;;;;5132025;27;19927;-67
2023/10/31 06:05:26;;;;;;;;;;;10.60;95.00;;;;;;5131467;27;19976;-66
2023/10/31 06:07:51;;;;;;;;;;;10.60;95.00;;;;;;5131697;27;19930;-66
2023/10/31 06:10:17;;;;;;;;;;;10.60;95.00;;;;;;5131306;27;19928;-66
2023/10/31 06:12:42;;;;;;;;;;;10.60;95.00;;;;;;5131095;27;19966;-67
2023/10/31 06:15:08;;;;;;;;;;;10.70;95.10;;;;;;5130528;27;19927;-66
2023/10/31 06:17:34;;;;;;;;;;;10.70;95.10;;;;;;5130997;27;19984;-66
2023/10/31 06:19:59;;;;;;;;;;;10.70;95.10;;;;;;5131786;27;19934;-66
2023/10/31 06:22:26;;;;;;;;;;;10.70;95.00;;;;;;5130381;27;19931;-66
2023/10/31 06:24:51;;;;;;;;;;;10.70;95.00;;;;;;5129673;27;19931;-66
2023/10/31 06:27:17;;;;;;;;;;;10.70;95.00;;;;;;5130186;27;19923;-67
2023/10/31 06:29:42;;;;;;;;;;;10.80;95.00;;;;;;5131432;27;19967;-68
2023/10/31 06:32:08;;;;;;;;;;;10.70;95.00;;;;;;5130158;27;19976;-67
2023/10/31 06:34:33;;;;;;;;;;;10.70;95.00;;;;;;5129279;27;20399;-68
2023/10/31 06:36:58;;;;;;;;;;;10.70;95.00;;;;;;5129376;27;19929;-67
2023/10/31 06:39:24;;;;;;;;;;;10.70;95.00;;;;;;5129168;27;20370;-70
2023/10/31 06:41:49;;;;;;;;;;;10.70;95.00;;;;;;5130392;27;19923;-68
2023/10/31 06:44:15;;;;;;;;;;;10.70;95.10;;;;;;5130736;27;19990;-68
2023/10/31 06:46:40;;;;;;;;;;;10.60;95.00;;;;;;5126639;27;20018;-66
2023/10/31 06:49:06;;;;;;;;;;;10.60;94.90;;;;;;5127749;27;19983;-67
2023/10/31 06:51:31;;;;;;;;;;;10.60;94.90;;;;;;5128204;27;19929;-66
2023/10/31 06:53:57;;;;;;;;;;;10.60;94.70;;;;;;5130259;27;20887;-66
2023/10/31 06:56:22;;;;;;;;;;;10.50;94.70;;;;;;5127303;27;19927;-68
2023/10/31 06:58:48;;;;;;;;;;;10.50;94.50;;;;;;5125511;27;19924;-66
2023/10/31 07:01:18;;;;;;;;;;;10.50;94.50;;;;;;5128751;27;19949;-67
2023/10/31 07:03:43;;;;;;;;;;;10.50;94.40;;;;;;5121263;27;19945;-67
2023/10/31 07:06:09;;;;;;;;;;;10.60;94.30;;;;;;5127833;27;19923;-66
2023/10/31 07:08:34;;;;;;;;;;;10.60;94.30;;;;;;5128846;27;19923;-66
2023/10/31 07:11:00;;;;;;;;;;;10.60;94.20;;;;;;5128261;27;19976;-65
2023/10/31 07:13:25;;;;;;;;;;;10.50;94.00;;;;;;5123964;27;19923;-66
2023/10/31 07:15:51;;;;;;;;;;;10.60;94.00;;;;;;5127377;27;19927;-66
2023/10/31 07:18:16;;;;;;;;;;;10.60;93.90;;;;;;5126248;28;19934;-66
2023/10/31 07:20:41;;;;;;;;;;;10.60;93.80;;;;;;5122714;28;19924;-66
2023/10/31 07:23:07;;;;;;;;;;;10.60;93.90;;;;;;5112449;28;19923;-69
2023/10/31 07:25:32;;;;;;;;;;;10.60;93.70;;;;;;5117277;28;19923;-66
2023/10/31 07:27:58;;;;;;;;;;;10.70;93.70;;;;;;5115992;28;19924;-67
2023/10/31 07:30:23;;;;;;;;;;;10.70;93.70;;;;;;5115148;28;19933;-67
2023/10/31 07:32:52;;;;;;;;;;;10.70;93.50;;;;;;5100147;28;19923;-67
2023/10/31 07:35:19;;;;;;;;;;;10.70;93.50;;;;;;5114102;28;19939;-67
2023/10/31 07:37:45;;;;;;;;;;;10.60;93.60;;;;;;5120739;28;19931;-69
2023/10/31 07:40:16;;;;;;;;;;;10.70;93.60;;;;;;5118732;28;19938;-68
2023/10/31 07:42:42;;;;;;;;;;;10.80;93.60;;;;;;5115128;28;20308;-68
2023/10/31 07:45:07;;;;;;;;;;;10.70;93.70;;;;;;5118808;28;19932;-68
2023/10/31 07:47:33;;;;;;;;;;;10.80;93.80;;;;;;5120658;28;19931;-67
2023/10/31 07:49:59;;;;;;;;;;;10.80;93.80;;;;;;5117368;28;19967;-67
2023/10/31 07:52:27;;;;;;;;;;;10.80;93.80;;;;;;5116055;28;19927;-68
2023/10/31 07:54:53;;;;;;;;;;;10.90;93.90;;;;;;5115343;28;19957;-68
2023/10/31 07:57:18;;;;;;;;;;;10.90;93.70;;;;;;5117489;28;19924;-67
2023/10/31 07:59:44;;;;;;;;;;;10.90;93.70;;;;;;5118475;28;20519;-68
2023/10/31 08:02:10;;;;;;;;;;;11.00;93.70;;;;;;5117219;28;19932;-67
2023/10/31 08:04:35;;;;;;;;;;;11.00;93.80;;;;;;5114997;28;19924;-68
2023/10/31 08:07:01;;;;;;;;;;;11.00;93.80;;;;;;5110797;28;19928;-68
2023/10/31 08:09:27;;;;;;;;;;;11.00;93.90;;;;;;5116313;28;19923;-67
2023/10/31 08:11:52;;;;;;;;;;;11.00;93.70;;;;;;5116271;28;19923;-67
2023/10/31 08:14:18;;;;;;;;;;;11.10;93.60;;;;;;5119018;28;20302;-67
2023/10/31 08:16:44;;;;;;;;;;;11.10;93.60;;;;;;5118047;28;19928;-67
2023/10/31 08:19:10;;;;;;;;;;;11.10;93.70;;;;;;5099586;28;19927;-67
2023/10/31 08:21:38;;;;;;;;;;;11.20;93.70;;;;;;5119712;27;20356;-66
2023/10/31 08:24:04;;;;;;;;;;;11.20;93.70;;;;;;5120771;27;20039;-66
2023/10/31 08:26:30;;;;;;;;;;;11.30;93.70;;;;;;5123273;27;19927;-66
2023/10/31 08:28:55;;;;;;;;;;;11.30;93.70;;;;;;5122249;27;20448;-66
2023/10/31 08:31:21;;;;;;;;;;;11.50;93.80;;;;;;5121490;27;19935;-66
2023/10/31 08:33:46;;;;;;;;;;;11.40;93.60;;;;;;5121752;27;20027;-67
2023/10/31 08:36:12;;;;;;;;;;;11.30;93.80;;;;;;5120981;27;19927;-66
2023/10/31 08:38:37;;;;;;;;;;;11.20;93.70;;;;;;5120431;27;20446;-65
2023/10/31 08:41:03;;;;;;;;;;;11.10;93.90;;;;;;5124246;27;19924;-67
2023/10/31 08:43:28;;;;;;;;;;;11.10;94.00;;;;;;5122188;27;19923;-66
2023/10/31 08:45:54;;;;;;;;;;;11.10;93.90;;;;;;5119920;27;19938;-66
2023/10/31 08:48:19;;;;;;;;;;;11.00;94.10;;;;;;5122978;27;19958;-66
2023/10/31 08:50:45;;;;;;;;;;;11.00;94.20;;;;;;5121322;27;20781;-67
2023/10/31 08:53:11;;;;;;;;;;;11.00;94.20;;;;;;5119561;27;20383;-67
2023/10/31 08:55:37;;;;;;;;;;;11.00;94.40;;;;;;5119757;27;19939;-67
2023/10/31 08:58:02;;;;;;;;;;;11.00;94.60;;;;;;5121121;27;19932;-66
2023/10/31 09:00:28;;;;;;;;;;;11.00;94.70;;;;;;5113586;27;19980;-66
2023/10/31 09:02:54;;;;;;;;;;;11.00;94.80;;;;;;5120617;27;19934;-66
2023/10/31 09:05:20;;;;;;;;;;;11.10;94.90;;;;;;5119388;27;20007;-66
2023/10/31 09:07:46;;;;;;;;;;;11.10;94.90;;;;;;5121357;27;19927;-67
2023/10/31 09:10:11;;;;;;;;;;;11.10;94.90;;;;;;5122179;27;20013;-68
2023/10/31 09:12:37;;;;;;;;;;;11.10;94.90;;;;;;5120022;27;19924;-67
2023/10/31 09:15:03;;;;;;;;;;;11.20;94.90;;;;;;5121790;27;19932;-67
2023/10/31 09:17:31;;;;;;;;;;;11.10;94.90;;;;;;5121194;27;19983;-67
2023/10/31 09:19:57;;;;;;;;;;;11.20;95.00;;;;;;5120931;27;19931;-67
2023/10/31 09:22:22;;;;;;;;;;;11.20;94.80;;;;;;5121230;27;19935;-67
2023/10/31 09:24:48;;;;;;;;;;;11.10;94.80;;;;;;5120924;27;19931;-67
2023/10/31 09:27:13;;;;;;;;;;;11.10;94.90;;;;;;5119990;27;19924;-67
2023/10/31 09:29:39;;;;;;;;;;;11.10;94.80;;;;;;5120501;27;19924;-67
2023/10/31 09:32:06;;;;;;;;;;;11.10;94.90;;;;;;5119619;27;20344;-67
2023/10/31 09:34:31;;;;;;;;;;;11.10;94.80;;;;;;5118754;27;19928;-67
2023/10/31 09:36:57;;;;;;;;;;;11.10;94.90;;;;;;5120926;27;19978;-68
2023/10/31 09:39:23;;;;;;;;;;;11.00;95.00;;;;;;5120410;27;19924;-67
2023/10/31 09:41:48;;;;;;;;;;;11.10;95.00;;;;;;5121064;27;19927;-67
2023/10/31 09:44:14;;;;;;;;;;;11.10;95.10;;;;;;5119239;27;19980;-67
2023/10/31 09:46:40;;;;;;;;;;;11.00;95.20;;;;;;5120866;27;20035;-67
2023/10/31 09:49:06;;;;;;;;;;;11.00;95.30;;;;;;5121270;27;20010;-67
2023/10/31 09:51:32;;;;;;;;;;;11.00;95.30;;;;;;5119075;27;19931;-67
2023/10/31 09:53:59;;;;;;;;;;;11.10;95.40;;;;;;5113890;27;20284;-66
2023/10/31 09:56:24;;;;;;;;;;;11.10;95.30;;;;;;5120594;27;20326;-67
2023/10/31 09:58:51;;;;;;;;;;;11.20;95.30;;;;;;5119826;27;19931;-67
2023/10/31 10:01:16;;;;;;;;;;;11.20;95.30;;;;;;5120948;27;19923;-68
2023/10/31 10:03:42;;;;;;;;;;;11.20;95.30;;;;;;5120899;27;19930;-67
2023/10/31 10:06:09;;;;;;;;;;;11.30;95.30;;;;;;5120592;27;19934;-67
2023/10/31 10:08:36;;;;;;;;;;;11.20;95.30;;;;;;5119812;27;20376;-67
2023/10/31 10:11:02;;;;;;;;;;;11.30;95.30;;;;;;5122840;27;19938;-67
2023/10/31 10:13:28;;;;;;;;;;;11.30;95.30;;;;;;5121420;27;19927;-67
2023/10/31 10:15:54;;;;;;;;;;;11.30;95.30;;;;;;5120909;27;19924;-67
2023/10/31 10:18:26;;;;;;;;;;;11.30;95.10;;;;;;5118706;27;20470;-67
2023/10/31 10:20:56;;;;;;;;;;;11.30;95.10;;;;;;5119973;27;19967;-67
2023/10/31 10:23:22;;;;;;;;;;;11.30;95.20;;;;;;5120354;27;19928;-66
2023/10/31 10:25:51;;;;;;;;;;;11.30;95.20;;;;;;5118320;27;19975;-67
2023/10/31 10:28:18;;;;;;;;;;;11.40;95.20;;;;;;5118877;27;19935;-66
2023/10/31 10:30:44;;;;;;;;;;;11.50;95.20;;;;;;5119963;27;19980;-67
2023/10/31 10:33:10;;;;;;;;;;;11.50;95.00;;;;;;5121507;27;20390;-65
2023/10/31 10:35:35;;;;;;;;;;;11.40;95.10;;;;;;5119930;27;19938;-65
2023/10/31 10:38:03;;;;;;;;;;;11.40;95.00;;;;;;5118175;27;20529;-65
2023/10/31 10:40:28;;;;;;;;;;;11.40;95.00;;;;;;5120824;27;20434;-66
2023/10/31 10:42:59;;;;;;;;;;;11.40;95.00;;;;;;5118522;27;20029;-66
2023/10/31 10:45:25;;;;;;;;;;;11.40;95.00;;;;;;5113748;27;19939;-65
2023/10/31 10:47:52;;;;;;;;;;;11.40;94.80;;;;;;5117504;27;19932;-66
2023/10/31 10:50:20;;;;;;;;;;;11.30;94.40;;;;;;5116083;27;20598;-66
2023/10/31 10:52:49;;;;;;;;;;;11.30;94.60;;;;;;5118074;27;19935;-65
2023/10/31 10:55:37;;;;;;;;;;;11.30;94.60;;;;;;5116563;27;19924;-65
2023/10/31 10:58:05;;;;;;;;;;;11.20;94.10;;;;;;5117836;27;19977;-65
2023/10/31 11:00:31;;;;;;;;;;;11.30;94.40;;;;;;5116911;27;19923;-65
2023/10/31 11:03:12;;;;;;;;;;;11.30;94.30;;;;;;5115999;27;19939;-65
2023/10/31 11:05:38;;;;;;;;;;;11.30;94.20;;;;;;5118210;27;19927;-65
2023/10/31 11:08:04;;;;;;;;;;;11.30;94.10;;;;;;5120025;27;19931;-64
2023/10/31 11:10:29;;;;;;;;;;;11.40;94.10;;;;;;5119196;27;19988;-65
2023/10/31 11:13:01;;;;;;;;;;;11.40;93.90;;;;;;5119210;27;19928;-65
2023/10/31 11:15:27;;;;;;;;;;;11.40;93.50;;;;;;5119810;27;19924;-64
2023/10/31 11:17:53;;;;;;;;;;;11.40;93.60;;;;;;5120890;27;19939;-65
2023/10/31 11:20:19;;;;;;;;;;;11.40;93.60;;;;;;5118520;27;20050;-65
2023/10/31 11:22:45;;;;;;;;;;;11.40;93.70;;;;;;5118873;27;19923;-65
2023/10/31 11:25:15;;;;;;;;;;;11.50;93.60;;;;;;5119020;27;19934;-65
2023/10/31 11:27:41;;;;;;;;;;;11.50;93.60;;;;;;5119134;27;20403;-65
2023/10/31 11:30:19;;;;;;;;;;;11.50;93.60;;;;;;5119062;28;19932;-65
2023/10/31 11:32:49;;;;;;;;;;;11.60;93.60;;;;;;5119750;28;19931;-65
2023/10/31 11:35:15;;;;;;;;;;;11.50;93.40;;;;;;5118165;28;19946;-64
2023/10/31 11:37:41;;;;;;;;;;;11.50;93.30;;;;;;5118214;28;19966;-64
2023/10/31 11:40:13;;;;;;;;;;;11.50;93.30;;;;;;5112725;28;19970;-65
2023/10/31 11:42:41;;;;;;;;;;;11.50;93.20;;;;;;5117852;28;19931;-65
2023/10/31 11:45:10;;;;;;;;;;;11.50;93.50;;;;;;5120819;28;19927;-65
2023/10/31 11:47:45;;;;;;;;;;;11.40;93.20;;;;;;5117593;28;19938;-65
2023/10/31 11:50:11;;;;;;;;;;;11.40;93.40;;;;;;5119235;28;19928;-64
2023/10/31 11:52:37;;;;;;;;;;;11.30;93.30;;;;;;5117084;27;19929;-65
2023/10/31 11:55:03;;;;;;;;;;;11.30;93.40;;;;;;5119055;27;19924;-65
2023/10/31 11:57:29;;;;;;;;;;;11.30;93.30;;;;;;5120788;27;20318;-65
2023/10/31 11:59:54;;;;;;;;;;;11.40;93.40;;;;;;5122158;27;20402;-65
2023/10/31 12:02:20;;;;;;;;;;;11.50;93.50;;;;;;5122380;27;20402;-64
2023/10/31 12:04:46;;;;;;;;;;;11.60;93.40;;;;;;5120256;27;19924;-65
2023/10/31 12:07:11;;;;;;;;;;;11.60;93.20;;;;;;5121421;27;19935;-64
2023/10/31 12:09:49;;;;;;;;;;;11.60;93.30;;;;;;5124767;27;20676;-64
2023/10/31 12:12:15;;;;;;;;;;;11.70;93.30;;;;;;5121622;27;19930;-64
2023/10/31 12:14:40;;;;;;;;;;;11.80;93.00;;;;;;5122090;27;19932;-65
2023/10/31 12:17:06;;;;;;;;;;;11.80;93.10;;;;;;5124466;27;20561;-64
2023/10/31 12:19:32;;;;;;;;;;;11.90;93.00;;;;;;5122046;27;19932;-65
2023/10/31 12:21:58;;;;;;;;;;;12.00;93.10;;;;;;5120635;27;19976;-65
2023/10/31 12:24:23;;;;;;;;;;;12.00;92.90;;;;;;5122980;27;19927;-65
2023/10/31 12:26:49;;;;;;;;;;;11.90;92.10;;;;;;5120276;27;19932;-66
2023/10/31 12:29:16;;;;;;;;;;;11.90;92.20;;;;;;5121777;27;19931;-66
2023/10/31 12:31:42;;;;;;;;;;;11.90;91.60;;;;;;5120430;27;20014;-65
2023/10/31 12:34:08;;;;;;;;;;;11.90;91.90;;;;;;5118355;27;19942;-66
2023/10/31 12:36:35;;;;;;;;;;;11.90;91.80;;;;;;5120284;27;19932;-66
2023/10/31 12:39:01;;;;;;;;;;;11.90;91.60;;;;;;5121663;27;19928;-65
2023/10/31 12:41:27;;;;;;;;;;;12.00;91.50;;;;;;5121350;27;19930;-65
2023/10/31 12:43:53;;;;;;;;;;;12.00;91.30;;;;;;5122185;27;20299;-66
2023/10/31 12:46:26;;;;;;;;;;;12.00;91.30;;;;;;5123630;27;19928;-65
2023/10/31 12:48:51;;;;;;;;;;;12.10;91.00;;;;;;5119937;27;19932;-66
2023/10/31 12:51:16;;;;;;;;;;;12.40;92.90;;;;;;5120599;27;20355;-66
2023/10/31 12:53:47;;;;;;;;;;;12.80;92.40;;;;;;5117330;27;19923;-66
2023/10/31 12:56:33;;;;;;;;;;;12.80;91.60;;;;;;5117786;27;19928;-66
2023/10/31 12:58:59;;;;;;;;;;;12.70;91.30;;;;;;5119300;27;19924;-66
2023/10/31 13:01:24;;;;;;;;;;;12.60;90.60;;;;;;5120233;27;20542;-66
2023/10/31 13:03:53;;;;;;;;;;;12.60;90.60;;;;;;5120020;27;19992;-65
2023/10/31 13:06:19;;;;;;;;;;;12.60;90.40;;;;;;5118950;27;19963;-65
2023/10/31 13:08:45;;;;;;;;;;;12.50;89.40;;;;;;5118775;27;19978;-66
2023/10/31 13:11:11;;;;;;;;;;;12.50;89.20;;;;;;5119083;27;19935;-65
2023/10/31 13:13:36;;;;;;;;;;;12.50;89.40;;;;;;5119205;27;19927;-66
2023/10/31 13:16:02;;;;;;;;;;;12.50;89.20;;;;;;5119680;27;19928;-65
2023/10/31 13:18:28;;;;;;;;;;;12.50;87.80;;;;;;5119518;27;19923;-66
2023/10/31 13:20:53;;;;;;;;;;;12.50;88.10;;;;;;5120552;27;20272;-65
2023/10/31 13:23:20;;;;;;;;;;;12.60;88.10;;;;;;5119420;27;19931;-65
2023/10/31 13:25:45;;;;;;;;;;;12.60;88.00;;;;;;5114954;27;20751;-66
2023/10/31 13:28:12;;;;;;;;;;;12.60;88.40;;;;;;5118232;27;19923;-66
2023/10/31 13:30:38;;;;;;;;;;;12.60;88.40;;;;;;5119043;27;19924;-65
2023/10/31 13:33:03;;;;;;;;;;;12.50;87.90;;;;;;5118563;27;20312;-66
2023/10/31 13:35:29;;;;;;;;;;;12.50;88.10;;;;;;5120245;27;19969;-66
2023/10/31 13:37:54;;;;;;;;;;;12.50;87.80;;;;;;5118397;27;19924;-66
2023/10/31 13:40:19;;;;;;;;;;;12.50;88.10;;;;;;5119224;27;20462;-66
2023/10/31 13:42:45;;;;;;;;;;;12.60;88.50;;;;;;5120416;27;19993;-65
2023/10/31 13:45:10;;;;;;;;;;;12.60;87.80;;;;;;5120016;27;20017;-65
2023/10/31 13:47:37;;;;;;;;;;;12.70;87.70;;;;;;5120496;27;20012;-66
2023/10/31 13:50:04;;;;;;;;;;;12.80;87.60;;;;;;5120449;27;20022;-66
2023/10/31 13:52:30;;;;;;;;;;;13.00;87.70;;;;;;5119582;27;19923;-66
2023/10/31 13:54:56;;;;;;;;;;;13.10;88.00;;;;;;5120126;27;20583;-66
2023/10/31 13:57:21;;;;;;;;;;;13.10;87.90;;;;;;5119982;27;19935;-66
2023/10/31 13:59:47;;;;;;;;;;;13.10;88.40;;;;;;5119017;27;19984;-66
2023/10/31 14:02:12;;;;;;;;;;;13.00;88.30;;;;;;5119255;27;20299;-66
2023/10/31 14:04:38;;;;;;;;;;;12.90;88.40;;;;;;5118805;27;19931;-66
2023/10/31 14:07:03;;;;;;;;;;;12.80;88.40;;;;;;5119252;27;20333;-67
2023/10/31 14:09:30;;;;;;;;;;;12.80;88.50;;;;;;5119867;27;20020;-66